Time;durP1;ratioP1;P1;durP2;ratioP2;P2;SDS_P1;SDS_P2;PMS_P1;PMS_P2;Temp;Humidity;BMP_temperature;BMP_pressure;BME280_temperature;BME280_humidity;BME280_pressure;Samples;Min_cycle;Max_cycle;Signal;HPM_P1;HPM_P2
2024/01/25 00:00:58;;;;;;;11.00;3.90;;;;;;;6.13;100.00;98765.12;109427;1251;58950;-78
2024/01/25 00:03:41;;;;;;;9.60;3.40;;;;;;;6.17;100.00;98765.27;109437;1251;59014;-76
2024/01/25 00:06:08;;;;;;;10.00;3.70;;;;;;;6.19;100.00;98766.23;109442;1251;66913;-78
2024/01/25 00:08:35;;;;;;;10.60;3.00;;;;;;;6.21;100.00;98779.17;109339;1251;60794;-78
2024/01/25 00:11:03;;;;;;;5.90;2.40;;;;;;;6.24;100.00;98786.46;109494;1251;64110;-77
2024/01/25 00:13:29;;;;;;;8.20;2.60;;;;;;;6.26;100.00;98791.11;109308;1251;59065;-77
2024/01/25 00:15:56;;;;;;;5.80;2.00;;;;;;;6.27;100.00;98797.38;109511;1251;58895;-76
2024/01/25 00:18:22;;;;;;;7.70;3.10;;;;;;;6.30;100.00;98790.71;109537;1251;66108;-77
2024/01/25 00:20:49;;;;;;;8.10;2.50;;;;;;;6.33;100.00;98798.13;109494;1251;61154;-78
2024/01/25 00:23:16;;;;;;;5.60;2.00;;;;;;;6.36;100.00;98795.83;109443;1251;65246;-77
2024/01/25 00:25:42;;;;;;;7.90;2.70;;;;;;;6.41;100.00;98801.61;109508;1251;58946;-78
2024/01/25 00:28:09;;;;;;;8.80;2.70;;;;;;;6.47;100.00;98802.84;109471;1251;59019;-78
2024/01/25 00:30:35;;;;;;;8.00;2.60;;;;;;;6.50;100.00;98798.84;109477;1251;65940;-77
2024/01/25 00:33:02;;;;;;;7.70;2.40;;;;;;;6.51;100.00;98806.89;109384;1251;59994;-77
2024/01/25 00:35:29;;;;;;;6.40;2.10;;;;;;;6.53;100.00;98813.50;109378;1251;64128;-78
2024/01/25 00:37:56;;;;;;;5.60;2.10;;;;;;;6.53;100.00;98813.81;109375;1251;59197;-78
2024/01/25 00:40:23;;;;;;;7.20;2.40;;;;;;;6.55;100.00;98810.54;109488;1251;59260;-78
2024/01/25 00:42:53;;;;;;;6.40;2.90;;;;;;;6.57;100.00;98810.81;109480;1251;67371;-79
2024/01/25 00:45:21;;;;;;;9.80;2.30;;;;;;;6.56;100.00;98809.77;109443;1251;60812;-78
2024/01/25 00:47:48;;;;;;;5.70;2.10;;;;;;;6.55;100.00;98808.09;109423;1252;65037;-78
2024/01/25 00:50:17;;;;;;;7.10;2.50;;;;;;;6.54;100.00;98799.16;109292;1252;59112;-78
2024/01/25 00:52:44;;;;;;;8.60;2.60;;;;;;;6.52;100.00;98799.05;109442;1251;59138;-78
2024/01/25 00:55:11;;;;;;;6.60;2.70;;;;;;;6.50;100.00;98793.16;109318;1252;67387;-78
2024/01/25 00:57:38;;;;;;;9.40;2.50;;;;;;;6.50;100.00;98796.87;109478;1252;61299;-78
2024/01/25 01:00:06;;;;;;;10.00;2.50;;;;;;;6.53;100.00;98807.11;109308;1252;64137;-76
2024/01/25 01:02:42;;;;;;;7.40;2.50;;;;;;;6.53;100.00;98808.89;109245;1253;59296;-78
2024/01/25 01:05:09;;;;;;;9.70;2.70;;;;;;;6.52;100.00;98805.27;109300;1252;59092;-78
2024/01/25 01:07:37;;;;;;;8.70;2.10;;;;;;;6.49;100.00;98815.85;109447;1252;65944;-77
2024/01/25 01:10:04;;;;;;;8.20;2.10;;;;;;;6.48;100.00;98831.39;109467;1252;61075;-78
2024/01/25 01:12:30;;;;;;;6.00;2.20;;;;;;;6.50;100.00;98846.13;109438;1252;64190;-78
2024/01/25 01:14:57;;;;;;;7.80;2.60;;;;;;;6.49;100.00;98845.30;109166;1253;59055;-76
2024/01/25 01:17:23;;;;;;;7.00;2.90;;;;;;;6.43;100.00;98852.85;109477;1252;58883;-77
2024/01/25 01:19:50;;;;;;;10.40;2.40;;;;;;;6.37;100.00;98862.16;109315;1253;65951;-78
2024/01/25 01:22:17;;;;;;;5.70;1.90;;;;;;;6.30;100.00;98847.88;109408;1252;59979;-78
2024/01/25 01:24:43;;;;;;;9.00;3.10;;;;;;;6.22;100.00;98838.80;109429;1253;65069;-78
2024/01/25 01:27:10;;;;;;;10.30;2.60;;;;;;;6.16;100.00;98832.91;109391;1252;59231;-78
2024/01/25 01:29:36;;;;;;;7.10;2.30;;;;;;;6.13;100.00;98837.48;109456;1252;59113;-77
2024/01/25 01:32:03;;;;;;;10.60;2.60;;;;;;;6.10;100.00;98839.55;109412;1252;67244;-77
2024/01/25 01:34:30;;;;;;;6.60;2.50;;;;;;;6.09;100.00;98834.48;109413;1253;59990;-76
2024/01/25 01:36:56;;;;;;;11.70;3.30;;;;;;;6.08;100.00;98826.42;109443;1252;65242;-76
2024/01/25 01:39:23;;;;;;;7.50;2.40;;;;;;;6.08;100.00;98823.98;109435;1252;58954;-76
2024/01/25 01:41:49;;;;;;;8.50;2.20;;;;;;;6.08;100.00;98825.16;109450;1252;59030;-78
2024/01/25 01:44:16;;;;;;;6.70;2.20;;;;;;;6.06;100.00;98819.99;109354;1253;66965;-78
2024/01/25 01:46:44;;;;;;;6.00;2.10;;;;;;;6.06;100.00;98819.46;109500;1252;59852;-79
2024/01/25 01:49:12;;;;;;;6.00;2.10;;;;;;;6.08;100.00;98820.43;109376;1253;62903;-78
2024/01/25 01:51:40;;;;;;;5.40;2.20;;;;;;;6.11;100.00;98815.70;109457;1252;58962;-78
2024/01/25 01:54:07;;;;;;;6.50;2.00;;;;;;;6.12;100.00;98819.49;109330;1254;59103;-78
2024/01/25 01:56:35;;;;;;;5.90;1.90;;;;;;;6.13;100.00;98822.27;109358;1252;64808;-78
2024/01/25 01:59:05;;;;;;;8.20;2.20;;;;;;;6.14;100.00;98823.48;109308;1252;61084;-79
2024/01/25 02:01:32;;;;;;;6.20;2.00;;;;;;;6.15;100.00;98816.88;109348;1253;65128;-79
2024/01/25 02:03:58;;;;;;;7.10;2.30;;;;;;;6.17;100.00;98818.94;109405;1252;58983;-78
2024/01/25 02:06:25;;;;;;;10.70;2.20;;;;;;;6.19;100.00;98817.05;109450;1252;59051;-79
2024/01/25 02:08:53;;;;;;;6.10;2.30;;;;;;;6.20;100.00;98816.67;109382;1252;65948;-79
2024/01/25 02:11:20;;;;;;;7.40;2.20;;;;;;;6.20;100.00;98815.27;109431;1252;60282;-78
2024/01/25 02:13:47;;;;;;;6.60;2.50;;;;;;;6.21;100.00;98812.04;109299;1252;65105;-79
2024/01/25 02:16:17;;;;;;;7.90;1.90;;;;;;;6.22;100.00;98813.17;109259;1254;59004;-78
2024/01/25 02:18:44;;;;;;;4.40;1.70;;;;;;;6.23;100.00;98811.74;109462;1252;58866;-78
2024/01/25 02:21:10;;;;;;;8.30;2.10;;;;;;;6.22;100.00;98798.19;109436;1253;65962;-78
2024/01/25 02:23:37;;;;;;;6.10;2.30;;;;;;;6.23;100.00;98800.25;109308;1252;60078;-77
2024/01/25 02:26:03;;;;;;;6.50;1.80;;;;;;;6.28;100.00;98799.10;109303;1252;65330;-78
2024/01/25 02:28:30;;;;;;;7.60;2.30;;;;;;;6.35;100.00;98807.58;109427;1252;58951;-77
2024/01/25 02:30:57;;;;;;;8.50;2.70;;;;;;;6.39;100.00;98800.98;109311;1252;59036;-77
2024/01/25 02:33:23;;;;;;;8.80;2.40;;;;;;;6.41;100.00;98800.55;109404;1252;66108;-78
2024/01/25 02:35:50;;;;;;;7.90;2.10;;;;;;;6.44;100.00;98790.33;109452;1252;60034;-75
2024/01/25 02:38:16;;;;;;;6.00;1.50;;;;;;;6.48;100.00;98796.80;109405;1252;64107;-78
2024/01/25 02:40:43;;;;;;;6.70;1.30;;;;;;;6.54;100.00;98807.77;109323;1253;59002;-77
2024/01/25 02:43:09;;;;;;;5.60;1.90;;;;;;;6.59;100.00;98805.20;109416;1252;59078;-78
2024/01/25 02:45:36;;;;;;;7.10;2.30;;;;;;;6.59;100.00;98806.08;109294;1253;67234;-77
2024/01/25 02:48:03;;;;;;;5.70;1.90;;;;;;;6.61;100.00;98802.68;109436;1252;61034;-77
2024/01/25 02:50:30;;;;;;;6.90;1.60;;;;;;;6.62;100.00;98802.77;109462;1252;65466;-76
2024/01/25 02:52:57;;;;;;;5.00;1.90;;;;;;;6.65;100.00;98805.61;109413;1252;59239;-78
2024/01/25 02:55:23;;;;;;;9.10;2.20;;;;;;;6.67;100.00;98802.33;109412;1252;59285;-78
2024/01/25 02:57:50;;;;;;;5.00;1.70;;;;;;;6.66;100.00;98795.67;109405;1252;67035;-77
2024/01/25 03:00:31;;;;;;;5.80;2.30;;;;;;;6.65;100.00;98801.23;109407;1252;61045;-77
2024/01/25 03:02:58;;;;;;;9.40;2.00;;;;;;;6.66;100.00;98803.45;109312;1252;65316;-77
2024/01/25 03:05:25;;;;;;;8.10;1.50;;;;;;;6.66;100.00;98803.64;109450;1252;59386;-76
2024/01/25 03:07:52;;;;;;;5.40;1.60;;;;;;;6.66;100.00;98808.20;109441;1252;59173;-78
2024/01/25 03:10:18;;;;;;;9.10;1.70;;;;;;;6.67;100.00;98805.15;109436;1252;66019;-75
2024/01/25 03:12:45;;;;;;;3.30;1.50;;;;;;;6.68;100.00;98808.25;109368;1252;61160;-78
2024/01/25 03:15:12;;;;;;;5.70;1.60;;;;;;;6.69;100.00;98808.39;109431;1252;65078;-79
2024/01/25 03:17:38;;;;;;;6.50;1.80;;;;;;;6.68;100.00;98810.42;109452;1252;60179;-77
2024/01/25 03:20:06;;;;;;;5.80;2.10;;;;;;;6.68;100.00;98816.05;109451;1252;58793;-77
2024/01/25 03:22:32;;;;;;;4.50;1.60;;;;;;;6.71;100.00;98814.33;109429;1252;74928;-78
2024/01/25 03:24:59;;;;;;;4.90;1.30;;;;;;;6.74;100.00;98816.98;109439;1252;59892;-75
2024/01/25 03:27:25;;;;;;;6.70;1.90;;;;;;;6.76;100.00;98810.17;109422;1252;65065;-76
2024/01/25 03:29:52;;;;;;;5.50;1.70;;;;;;;6.78;100.00;98812.83;109418;1252;59157;-77
2024/01/25 03:32:18;;;;;;;6.90;1.30;;;;;;;6.80;100.00;98813.41;109415;1252;59207;-77
2024/01/25 03:34:45;;;;;;;4.90;1.50;;;;;;;6.80;100.00;98813.95;109456;1252;65949;-77
2024/01/25 03:37:12;;;;;;;4.20;1.80;;;;;;;6.80;100.00;98821.02;109439;1251;61226;-76
2024/01/25 03:39:38;;;;;;;5.40;1.60;;;;;;;6.82;100.00;98824.84;109418;1252;65063;-78
2024/01/25 03:42:05;;;;;;;8.00;1.90;;;;;;;6.81;100.00;98829.08;109468;1252;58992;-78
2024/01/25 03:44:31;;;;;;;5.50;1.50;;;;;;;6.80;100.00;98828.28;109425;1252;58956;-78
2024/01/25 03:46:58;;;;;;;7.00;1.90;;;;;;;6.79;100.00;98830.98;109449;1252;67053;-77
2024/01/25 03:49:25;;;;;;;4.40;1.40;;;;;;;6.77;100.00;98830.20;109452;1252;61134;-78
2024/01/25 03:51:51;;;;;;;7.00;1.60;;;;;;;6.76;100.00;98831.67;109436;1252;64084;-78
2024/01/25 03:54:18;;;;;;;5.90;1.60;;;;;;;6.75;100.00;98828.00;109446;1252;58987;-76
2024/01/25 03:56:45;;;;;;;5.90;1.60;;;;;;;6.75;100.00;98822.87;109352;1252;59124;-77
2024/01/25 03:59:13;;;;;;;4.20;1.40;;;;;;;6.75;100.00;98827.65;109416;1252;67044;-77
2024/01/25 04:01:49;;;;;;;6.10;2.10;;;;;;;6.75;100.00;98818.83;109451;1252;60047;-77
2024/01/25 04:04:16;;;;;;;5.50;1.10;;;;;;;6.76;100.00;98821.43;109431;1252;65427;-78
2024/01/25 04:06:43;;;;;;;6.70;1.60;;;;;;;6.76;100.00;98819.14;109411;1252;58962;-78
2024/01/25 04:09:10;;;;;;;4.80;1.40;;;;;;;6.76;100.00;98818.60;109444;1252;58995;-76
2024/01/25 04:11:38;;;;;;;4.80;1.60;;;;;;;6.74;100.00;98827.54;109315;1253;66003;-78
2024/01/25 04:14:05;;;;;;;4.20;1.70;;;;;;;6.72;100.00;98835.07;109444;1252;60841;-78
2024/01/25 04:16:32;;;;;;;6.50;1.70;;;;;;;6.71;100.00;98831.95;109353;1252;65186;-78
2024/01/25 04:18:59;;;;;;;5.10;1.70;;;;;;;6.68;100.00;98830.33;109284;1252;59038;-76
2024/01/25 04:21:27;;;;;;;7.40;2.00;;;;;;;6.67;100.00;98829.89;109316;1252;59017;-77
2024/01/25 04:23:54;;;;;;;7.70;2.30;;;;;;;6.67;100.00;98836.27;109430;1251;74888;-80
2024/01/25 04:26:20;;;;;;;5.80;2.10;;;;;;;6.66;100.00;98831.67;109461;1252;60040;-76
2024/01/25 04:28:47;;;;;;;6.20;1.70;;;;;;;6.64;100.00;98831.44;109463;1252;65123;-78
2024/01/25 04:31:13;;;;;;;5.50;1.60;;;;;;;6.61;100.00;98831.39;109457;1252;59061;-79
2024/01/25 04:33:40;;;;;;;8.20;2.10;;;;;;;6.58;100.00;98831.20;109492;1252;59083;-79
2024/01/25 04:36:07;;;;;;;5.10;1.20;;;;;;;6.56;100.00;98834.85;109454;1252;75015;-76
2024/01/25 04:38:33;;;;;;;5.70;1.50;;;;;;;6.53;100.00;98829.55;109483;1252;61052;-78
2024/01/25 04:41:00;;;;;;;4.10;1.70;;;;;;;6.51;100.00;98844.34;109503;1251;65042;-77
2024/01/25 04:43:27;;;;;;;7.20;2.10;;;;;;;6.49;100.00;98847.42;109341;1252;58998;-78
2024/01/25 04:45:53;;;;;;;6.20;1.80;;;;;;;6.43;100.00;98832.89;109445;1252;58909;-77
2024/01/25 04:48:20;;;;;;;5.70;1.70;;;;;;;6.38;100.00;98834.61;109466;1252;67065;-77
2024/01/25 04:50:47;;;;;;;5.90;2.30;;;;;;;6.32;100.00;98835.25;109478;1252;61126;-77
2024/01/25 04:53:13;;;;;;;8.40;2.30;;;;;;;6.28;100.00;98833.68;109419;1252;64236;-77
2024/01/25 04:55:40;;;;;;;7.10;2.00;;;;;;;6.27;100.00;98833.39;109455;1252;58977;-77
2024/01/25 04:58:06;;;;;;;7.00;2.30;;;;;;;6.25;100.00;98836.27;109472;1252;58950;-77
2024/01/25 05:00:33;;;;;;;6.60;1.70;;;;;;;6.25;100.00;98834.52;109389;1251;65908;-79
2024/01/25 05:03:00;;;;;;;5.90;1.90;;;;;;;6.27;100.00;98830.77;109462;1251;61159;-77
2024/01/25 05:05:27;;;;;;;7.20;1.90;;;;;;;6.29;100.00;98831.50;109458;1252;65134;-77
2024/01/25 05:07:54;;;;;;;6.20;1.80;;;;;;;6.31;100.00;98833.72;109447;1252;58994;-76
2024/01/25 05:10:21;;;;;;;4.90;1.60;;;;;;;6.32;100.00;98830.86;109477;1252;59031;-77
2024/01/25 05:12:48;;;;;;;5.80;1.80;;;;;;;6.33;100.00;98824.98;109473;1252;65950;-78
2024/01/25 05:15:15;;;;;;;4.80;2.00;;;;;;;6.33;100.00;98821.40;109491;1252;61271;-78
2024/01/25 05:17:41;;;;;;;8.50;2.50;;;;;;;6.33;100.00;98818.41;109433;1252;65149;-78
2024/01/25 05:20:08;;;;;;;6.90;2.20;;;;;;;6.33;100.00;98823.03;109447;1252;58978;-76
2024/01/25 05:22:40;;;;;;;6.20;2.30;;;;;;;6.33;100.00;98816.65;109450;1251;58908;-78
2024/01/25 05:25:08;;;;;;;6.20;2.20;;;;;;;6.34;100.00;98818.39;109396;1252;67023;-78
2024/01/25 05:27:34;;;;;;;6.20;1.80;;;;;;;6.34;100.00;98822.08;109469;1252;60384;-79
2024/01/25 05:30:01;;;;;;;8.50;1.80;;;;;;;6.33;100.00;98818.05;109247;1253;64008;-78
2024/01/25 05:32:28;;;;;;;7.80;2.70;;;;;;;6.32;100.00;98813.58;109446;1252;58968;-78
2024/01/25 05:34:55;;;;;;;8.00;2.00;;;;;;;6.29;100.00;98814.73;109489;1251;59103;-77
2024/01/25 05:37:21;;;;;;;5.70;2.30;;;;;;;6.28;100.00;98808.65;109499;1252;66974;-78
2024/01/25 05:39:48;;;;;;;8.10;2.50;;;;;;;6.27;100.00;98807.64;109461;1252;60033;-77
2024/01/25 05:42:14;;;;;;;7.30;2.50;;;;;;;6.27;100.00;98803.22;109287;1253;65185;-76
2024/01/25 05:44:41;;;;;;;7.50;2.60;;;;;;;6.27;100.00;98806.23;109221;1253;59301;-77
2024/01/25 05:47:08;;;;;;;7.00;2.30;;;;;;;6.28;100.00;98803.51;109437;1252;58884;-78
2024/01/25 05:49:35;;;;;;;8.80;2.70;;;;;;;6.29;100.00;98815.83;109418;1255;66037;-78
2024/01/25 05:52:02;;;;;;;5.80;1.90;;;;;;;6.31;100.00;98815.19;109481;1252;61108;-79
2024/01/25 05:54:29;;;;;;;8.00;2.50;;;;;;;6.32;100.00;98806.11;109454;1252;63874;-74
2024/01/25 05:56:55;;;;;;;8.50;2.50;;;;;;;6.33;100.00;98804.86;109402;1252;58954;-79
2024/01/25 05:59:22;;;;;;;6.80;2.50;;;;;;;6.31;100.00;98800.52;109431;1252;59713;-77
2024/01/25 06:01:48;;;;;;;6.50;2.60;;;;;;;6.29;100.00;98791.98;109465;1252;65974;-78
2024/01/25 06:04:15;;;;;;;11.20;3.20;;;;;;;6.29;100.00;98800.46;109367;1253;61266;-80
2024/01/25 06:06:41;;;;;;;8.70;2.70;;;;;;;6.29;100.00;98795.71;109453;1252;64146;-79
2024/01/25 06:09:08;;;;;;;7.90;2.60;;;;;;;6.27;100.00;98792.09;109447;1252;58921;-79
2024/01/25 06:11:35;;;;;;;9.40;3.20;;;;;;;6.26;100.00;98793.59;109512;1252;59103;-77
2024/01/25 06:14:02;;;;;;;7.30;2.20;;;;;;;6.25;100.00;98786.55;109473;1253;67073;-79
2024/01/25 06:16:29;;;;;;;10.20;3.10;;;;;;;6.23;100.00;98778.53;109449;1252;61056;-79
2024/01/25 06:18:55;;;;;;;7.20;2.70;;;;;;;6.22;100.00;98777.57;109480;1253;64966;-79
2024/01/25 06:21:22;;;;;;;7.80;3.40;;;;;;;6.21;100.00;98783.10;109460;1252;58961;-78
2024/01/25 06:23:49;;;;;;;9.00;3.20;;;;;;;6.20;100.00;98778.74;109474;1251;59133;-77
2024/01/25 06:26:15;;;;;;;6.90;3.00;;;;;;;6.19;100.00;98778.07;109483;1252;66987;-78
2024/01/25 06:28:42;;;;;;;6.00;2.70;;;;;;;6.19;100.00;98776.14;109511;1251;61008;-77
2024/01/25 06:31:08;;;;;;;6.90;2.60;;;;;;;6.18;100.00;98771.74;109468;1252;64729;-78
2024/01/25 06:33:35;;;;;;;9.70;2.50;;;;;;;6.18;100.00;98768.45;109284;1252;59036;-79
2024/01/25 06:36:02;;;;;;;6.30;2.00;;;;;;;6.17;100.00;98773.95;109494;1252;59122;-78
2024/01/25 06:38:28;;;;;;;8.90;2.60;;;;;;;6.16;100.00;98775.58;109258;1253;67054;-78
2024/01/25 06:40:55;;;;;;;12.70;2.80;;;;;;;6.16;100.00;98774.51;109470;1252;61231;-76
2024/01/25 06:43:21;;;;;;;7.20;2.80;;;;;;;6.15;100.00;98780.54;109471;1252;64237;-78
2024/01/25 06:45:48;;;;;;;7.60;2.30;;;;;;;6.15;100.00;98783.02;109444;1252;59015;-78
2024/01/25 06:48:15;;;;;;;8.40;3.00;;;;;;;6.15;100.00;98784.22;109466;1252;59796;-78
2024/01/25 06:50:41;;;;;;;9.20;2.20;;;;;;;6.15;100.00;98795.33;109478;1252;66183;-79
2024/01/25 06:53:08;;;;;;;7.00;2.40;;;;;;;6.19;100.00;98804.50;109491;1252;61037;-76
2024/01/25 06:55:35;;;;;;;7.60;2.60;;;;;;;6.23;100.00;98806.25;109406;1253;62761;-79
2024/01/25 06:58:01;;;;;;;10.80;3.00;;;;;;;6.26;100.00;98808.20;109480;1252;59146;-76
2024/01/25 07:00:28;;;;;;;7.10;3.30;;;;;;;6.28;100.00;98816.61;109497;1252;59122;-77
2024/01/25 07:02:54;;;;;;;8.40;3.30;;;;;;;6.29;100.00;98818.80;109456;1252;65963;-76
2024/01/25 07:05:21;;;;;;;8.30;2.90;;;;;;;6.30;100.00;98816.27;109478;1252;59744;-76
2024/01/25 07:07:48;;;;;;;10.00;3.00;;;;;;;6.31;100.00;98823.46;109258;1255;64235;-78
2024/01/25 07:10:14;;;;;;;8.30;3.30;;;;;;;6.32;100.00;98819.38;109515;1251;58962;-76
2024/01/25 07:12:41;;;;;;;17.20;6.80;;;;;;;6.30;100.00;98827.42;109498;1252;58989;-78
2024/01/25 07:15:08;;;;;;;17.30;5.70;;;;;;;6.28;100.00;98824.70;109447;1252;67100;-77
2024/01/25 07:17:34;;;;;;;10.50;3.00;;;;;;;6.26;100.00;98827.80;109065;1253;60779;-77
2024/01/25 07:20:01;;;;;;;7.90;2.70;;;;;;;6.26;100.00;98826.92;109482;1251;64076;-79
2024/01/25 07:22:27;;;;;;;5.70;2.40;;;;;;;6.27;100.00;98833.38;109458;1252;59077;-77
2024/01/25 07:24:54;;;;;;;6.90;2.00;;;;;;;6.29;100.00;98827.44;109476;1253;59096;-78
2024/01/25 07:27:21;;;;;;;5.90;1.80;;;;;;;6.34;100.00;98826.33;109491;1253;67193;-77
2024/01/25 07:29:47;;;;;;;7.60;2.80;;;;;;;6.36;100.00;98829.20;109428;1253;61066;-79
2024/01/25 07:32:14;;;;;;;8.10;1.90;;;;;;;6.38;100.00;98831.58;109449;1252;64082;-77
2024/01/25 07:34:40;;;;;;;10.50;3.50;;;;;;;6.42;100.00;98836.84;109455;1253;58973;-78
2024/01/25 07:37:07;;;;;;;10.70;3.30;;;;;;;6.43;100.00;98841.36;109324;1253;58991;-78
2024/01/25 07:39:34;;;;;;;8.00;4.20;;;;;;;6.44;100.00;98852.46;109480;1252;65800;-78
2024/01/25 07:42:00;;;;;;;5.90;2.70;;;;;;;6.44;100.00;98845.05;109510;1252;61108;-78
2024/01/25 07:44:27;;;;;;;13.90;3.90;;;;;;;6.44;100.00;98847.88;109161;1253;64884;-79
2024/01/25 07:46:54;;;;;;;11.00;3.60;;;;;;;6.40;100.00;98851.42;109466;1252;59027;-79
2024/01/25 07:49:21;;;;;;;4.20;1.50;;;;;;;6.37;100.00;98854.92;109521;1253;59142;-78
2024/01/25 07:51:47;;;;;;;5.80;1.80;;;;;;;6.35;100.00;98858.73;109258;1252;65965;-80
2024/01/25 07:54:14;;;;;;;8.30;1.80;;;;;;;6.32;100.00;98853.40;109493;1253;60253;-78
2024/01/25 07:56:40;;;;;;;6.50;1.50;;;;;;;6.28;100.00;98858.38;109454;1252;62773;-80
2024/01/25 07:59:07;;;;;;;10.80;2.30;;;;;;;6.25;100.00;98858.52;109230;1253;59588;-81
2024/01/25 08:01:34;;;;;;;8.80;2.30;;;;;;;6.25;100.00;98860.48;109456;1253;58997;-77
2024/01/25 08:04:00;;;;;;;6.10;1.90;;;;;;;6.25;100.00;98856.95;109464;1253;66981;-79
2024/01/25 08:06:27;;;;;;;7.60;1.70;;;;;;;6.26;100.00;98861.52;109280;1253;61077;-79
2024/01/25 08:08:54;;;;;;;6.70;2.30;;;;;;;6.26;100.00;98861.66;109499;1252;64694;-80
2024/01/25 08:11:21;;;;;;;6.20;1.90;;;;;;;6.25;100.00;98859.22;109417;1253;58969;-80
2024/01/25 08:13:47;;;;;;;5.30;2.00;;;;;;;6.26;100.00;98851.96;109488;1252;58879;-78
2024/01/25 08:16:18;;;;;;;7.40;2.00;;;;;;;6.27;100.00;98851.20;109477;1252;67079;-81
2024/01/25 08:18:49;;;;;;;8.70;2.80;;;;;;;6.25;100.00;98848.15;109482;1252;60142;-79
2024/01/25 08:21:16;;;;;;;6.10;2.10;;;;;;;6.24;100.00;98849.27;109473;1255;63853;-78
2024/01/25 08:23:42;;;;;;;9.90;2.20;;;;;;;6.24;100.00;98856.48;109443;1253;59019;-78
2024/01/25 08:26:09;;;;;;;6.30;1.80;;;;;;;6.28;100.00;98850.29;109270;1253;58956;-80
2024/01/25 08:28:36;;;;;;;7.40;2.20;;;;;;;6.33;100.00;98852.67;109272;1252;67026;-80
2024/01/25 08:31:02;;;;;;;7.30;2.10;;;;;;;6.37;100.00;98859.48;109463;1252;61217;-81
2024/01/25 08:33:29;;;;;;;8.40;2.80;;;;;;;6.39;100.00;98862.25;109468;1252;65141;-78
2024/01/25 08:35:56;;;;;;;6.60;2.00;;;;;;;6.38;100.00;98863.33;109490;1252;58980;-80
2024/01/25 08:38:22;;;;;;;9.00;2.60;;;;;;;6.38;100.00;98869.52;109478;1253;59025;-80
2024/01/25 08:40:49;;;;;;;9.00;2.60;;;;;;;6.40;100.00;98866.42;109475;1252;67640;-80
2024/01/25 08:43:16;;;;;;;8.20;2.70;;;;;;;6.41;100.00;98868.34;109509;1253;61120;-80
2024/01/25 08:45:42;;;;;;;8.20;2.30;;;;;;;6.40;100.00;98869.61;109455;1253;65108;-81
2024/01/25 08:48:09;;;;;;;10.30;2.60;;;;;;;6.38;100.00;98859.63;109466;1252;59034;-79
2024/01/25 08:50:36;;;;;;;9.20;2.50;;;;;;;6.38;100.00;98861.73;109477;1252;59043;-79
2024/01/25 08:53:02;;;;;;;10.20;2.60;;;;;;;6.39;100.00;98868.59;109487;1252;67022;-81
2024/01/25 08:55:29;;;;;;;9.70;2.90;;;;;;;6.38;100.00;98871.25;109192;1253;61672;-79
2024/01/25 08:57:55;;;;;;;8.90;2.50;;;;;;;6.38;100.00;98869.15;109480;1253;65146;-79
2024/01/25 09:00:22;;;;;;;11.40;3.10;;;;;;;6.40;100.00;98867.51;109213;1252;59090;-79
2024/01/25 09:02:49;;;;;;;7.10;2.40;;;;;;;6.42;100.00;98869.66;109503;1253;59017;-79
2024/01/25 09:05:16;;;;;;;8.50;2.80;;;;;;;6.44;100.00;98876.80;109482;1253;65861;-79
2024/01/25 09:07:42;;;;;;;10.20;2.80;;;;;;;6.46;100.00;98882.52;109489;1253;61068;-79
2024/01/25 09:10:09;;;;;;;10.60;3.40;;;;;;;6.48;100.00;98886.13;109491;1252;65163;-78
2024/01/25 09:12:37;;;;;;;8.70;2.70;;;;;;;6.50;100.00;98886.20;109246;1253;58990;-79
2024/01/25 09:15:05;;;;;;;10.00;3.00;;;;;;;6.52;100.00;98882.19;109407;1253;59104;-76
2024/01/25 09:17:31;;;;;;;8.60;3.10;;;;;;;6.55;100.00;98889.63;109500;1253;67019;-80
2024/01/25 09:19:59;;;;;;;12.00;3.10;;;;;;;6.59;100.00;98897.00;109456;1253;61127;-77
2024/01/25 09:22:26;;;;;;;8.30;2.70;;;;;;;6.62;100.00;98899.67;109447;1253;63822;-78
2024/01/25 09:24:53;;;;;;;11.90;3.00;;;;;;;6.65;100.00;98900.06;109493;1252;59055;-77
2024/01/25 09:27:19;;;;;;;11.90;2.70;;;;;;;6.69;100.00;98905.84;109270;1251;58985;-81
2024/01/25 09:29:46;;;;;;;11.20;3.40;;;;;;;6.75;100.00;98902.53;109497;1251;66188;-79
2024/01/25 09:32:13;;;;;;;8.90;2.10;;;;;;;6.81;100.00;98894.79;109513;1252;61438;-79
2024/01/25 09:34:39;;;;;;;11.80;3.20;;;;;;;6.86;100.00;98893.13;109500;1252;64068;-79
2024/01/25 09:37:06;;;;;;;7.90;2.20;;;;;;;6.87;100.00;98896.41;109493;1253;58976;-79
2024/01/25 09:39:33;;;;;;;8.30;2.60;;;;;;;6.87;100.00;98895.34;109476;1252;59195;-79
2024/01/25 09:41:59;;;;;;;6.70;2.80;;;;;;;6.87;100.00;98909.34;109479;1252;67049;-81
2024/01/25 09:44:30;;;;;;;9.90;2.90;;;;;;;6.87;100.00;98911.45;109014;1252;61086;-78
2024/01/25 09:46:57;;;;;;;6.70;2.20;;;;;;;6.87;100.00;98911.44;109485;1253;65070;-79
2024/01/25 09:49:24;;;;;;;9.50;2.90;;;;;;;6.87;100.00;98915.33;109253;1252;59043;-78
2024/01/25 09:51:51;;;;;;;11.00;3.00;;;;;;;6.89;100.00;98914.15;109447;1252;59012;-80
2024/01/25 09:54:18;;;;;;;10.80;2.60;;;;;;;6.88;100.00;98915.61;109483;1252;66229;-81
2024/01/25 09:56:45;;;;;;;10.90;3.00;;;;;;;6.86;100.00;98918.74;109496;1253;59869;-80
2024/01/25 09:59:12;;;;;;;8.70;2.70;;;;;;;6.81;100.00;98914.77;109493;1251;65168;-79
2024/01/25 10:01:39;;;;;;;11.70;3.10;;;;;;;6.77;100.00;98912.52;109412;1253;119672;-81
2024/01/25 10:04:08;;;;;;;8.30;3.40;;;;;;;6.75;100.00;98915.61;109510;1252;59409;-80
2024/01/25 10:06:35;;;;;;;10.50;2.80;;;;;;;6.73;100.00;98921.84;109186;1253;67163;-78
2024/01/25 10:09:04;;;;;;;10.10;2.80;;;;;;;6.71;100.00;98921.63;109494;1253;61112;-78
2024/01/25 10:11:35;;;;;;;11.50;2.50;;;;;;;6.66;100.00;98920.30;109263;1253;71511;-80
2024/01/25 10:14:02;;;;;;;11.00;3.20;;;;;;;6.60;100.00;98914.98;109481;1252;58946;-81
2024/01/25 10:16:29;;;;;;;12.70;3.10;;;;;;;6.54;100.00;98908.77;109528;1253;59204;-79
2024/01/25 10:18:56;;;;;;;8.70;2.70;;;;;;;6.51;100.00;98915.30;109462;1253;67114;-79
2024/01/25 10:21:22;;;;;;;12.10;3.50;;;;;;;6.49;100.00;98918.36;109513;1252;61245;-79
2024/01/25 10:23:51;;;;;;;8.80;2.70;;;;;;;6.51;100.00;98916.83;109505;1253;63855;-79
2024/01/25 10:26:18;;;;;;;12.60;2.80;;;;;;;6.57;100.00;98922.70;109478;1253;59062;-81
2024/01/25 10:28:51;;;;;;;9.10;2.70;;;;;;;6.65;100.00;98921.94;109480;1252;59024;-79
2024/01/25 10:31:17;;;;;;;9.50;2.80;;;;;;;6.73;100.00;98928.60;109496;1253;67049;-79
2024/01/25 10:33:45;;;;;;;6.50;2.60;;;;;;;6.77;100.00;98934.23;109259;1253;59821;-79
2024/01/25 10:36:11;;;;;;;12.20;3.10;;;;;;;6.79;100.00;98933.23;109259;1253;65052;-78
2024/01/25 10:38:38;;;;;;;10.00;3.10;;;;;;;6.83;100.00;98932.32;109491;1253;58937;-81
2024/01/25 10:41:05;;;;;;;8.50;2.40;;;;;;;6.90;100.00;98929.29;109459;1251;58978;-78
2024/01/25 10:43:32;;;;;;;14.00;3.30;;;;;;;6.96;100.00;98929.70;109263;1253;66624;-79
2024/01/25 10:45:59;;;;;;;8.80;3.20;;;;;;;6.95;100.00;98935.70;109451;1252;60314;-81
2024/01/25 10:48:27;;;;;;;13.90;3.20;;;;;;;6.92;100.00;98940.45;109254;1253;62645;-79
2024/01/25 10:50:55;;;;;;;9.10;2.70;;;;;;;6.90;100.00;98951.58;109267;1252;59044;-77
2024/01/25 10:53:24;;;;;;;11.40;3.20;;;;;;;6.90;100.00;98949.61;109540;1253;59023;-78
2024/01/25 10:55:52;;;;;;;7.80;2.60;;;;;;;6.92;100.00;98948.46;109459;1253;66200;-77
2024/01/25 10:58:18;;;;;;;8.20;2.70;;;;;;;6.91;100.00;98946.68;109295;1252;60242;-78
2024/01/25 11:01:12;;;;;;;9.80;2.70;;;;;;;6.90;100.00;98948.70;109465;1252;63912;-77
2024/01/25 11:03:40;;;;;;;8.20;2.60;;;;;;;6.89;100.00;98944.52;108817;1260;59368;-79
2024/01/25 11:06:11;;;;;;;12.00;2.80;;;;;;;6.88;100.00;98951.50;108893;1259;59330;-79
2024/01/25 11:08:39;;;;;;;9.70;2.80;;;;;;;6.85;100.00;98954.45;108919;1259;67081;-76
2024/01/25 11:11:08;;;;;;;8.20;2.50;;;;;;;6.83;100.00;98950.52;108901;1258;61251;-78
2024/01/25 11:13:35;;;;;;;12.30;2.90;;;;;;;6.82;100.00;98952.34;108898;1258;63812;-77
2024/01/25 11:16:20;;;;;;;8.70;2.30;;;;;;;6.80;100.00;98960.89;108905;1258;59551;-77
2024/01/25 11:18:52;;;;;;;7.10;1.90;;;;;;;6.79;100.00;98960.92;108802;1258;59137;-78
2024/01/25 11:21:26;;;;;;;11.60;2.70;;;;;;;6.80;100.00;98962.64;108899;1258;67284;-76
2024/01/25 11:24:00;;;;;;;9.50;3.00;;;;;;;6.81;100.00;98969.84;108914;1258;60140;-78